createdAt,value
2018-11-23T00:00:25.749Z,45.07
2018-11-23T00:02:55.944Z,50.50
2018-11-23T00:05:25.475Z,41.30
2018-11-23T00:07:55.883Z,45.80
2018-11-23T00:10:25.501Z,46.00
2018-11-23T00:12:54.997Z,51.10
2018-11-23T00:15:24.489Z,53.37
2018-11-23T00:17:53.046Z,52.53
2018-11-23T00:20:24.081Z,51.20
2018-11-23T00:22:52.687Z,46.97
2018-11-23T00:25:22.542Z,51.87
2018-11-23T00:27:51.493Z,47.70
2018-11-23T00:30:22.249Z,53.83
2018-11-23T00:32:51.498Z,50.57
2018-11-23T00:35:23.594Z,49.37
2018-11-23T00:37:52.909Z,51.23
2018-11-23T00:40:22.692Z,53.67
2018-11-23T00:42:52.674Z,59.53
2018-11-23T00:45:21.299Z,55.97
2018-11-23T00:47:50.582Z,60.30
2018-11-23T00:50:20.555Z,60.83
2018-11-23T00:52:49.592Z,57.47
2018-11-23T00:55:20.231Z,65.13
2018-11-23T00:57:48.817Z,70.03
2018-11-23T01:00:23.579Z,75.03
2018-11-23T01:02:52.542Z,77.00
2018-11-23T01:05:22.122Z,74.07
2018-11-23T01:07:50.757Z,74.33
2018-11-23T01:10:20.400Z,75.73
2018-11-23T01:12:50.899Z,78.97
2018-11-23T01:15:19.528Z,75.87
2018-11-23T01:17:48.607Z,79.20
2018-11-23T01:20:22.899Z,81.27
2018-11-23T01:22:51.916Z,84.43
2018-11-23T01:25:21.587Z,82.53
2018-11-23T01:27:51.328Z,97.60
2018-11-23T01:30:21.797Z,80.73
2018-11-23T01:32:51.467Z,86.40
2018-11-23T01:35:20.047Z,87.20
2018-11-23T01:37:48.699Z,81.47
2018-11-23T01:40:20.123Z,85.77
2018-11-23T01:42:48.844Z,100.37
2018-11-23T01:45:18.262Z,105.00
2018-11-23T01:47:47.393Z,111.60
2018-11-23T01:50:20.077Z,109.53
2018-11-23T01:52:50.550Z,103.47
2018-11-23T01:55:20.977Z,89.90
2018-11-23T01:57:49.592Z,102.70
2018-11-23T02:00:19.700Z,114.03
2018-11-23T02:02:48.926Z,113.97
2018-11-23T02:05:18.484Z,110.37
2018-11-23T02:07:47.464Z,113.80
2018-11-23T02:10:17.148Z,112.53
2018-11-23T02:12:46.956Z,99.63
2018-11-23T02:15:17.610Z,108.57
2018-11-23T02:17:47.162Z,121.73
2018-11-23T02:20:17.009Z,105.70
2018-11-23T02:22:46.374Z,109.40
2018-11-23T02:25:16.574Z,97.00
2018-11-23T02:27:45.129Z,105.83
2018-11-23T02:30:17.097Z,104.50
2018-11-23T02:32:46.124Z,108.40
2018-11-23T02:35:16.310Z,89.63
2018-11-23T02:37:46.404Z,101.00
2018-11-23T02:40:16.978Z,95.97
2018-11-23T02:42:47.455Z,121.77
2018-11-23T02:45:19.755Z,118.13
2018-11-23T02:47:48.687Z,118.93
2018-11-23T02:50:18.759Z,104.93
2018-11-23T02:52:48.813Z,112.40
2018-11-23T02:55:19.206Z,120.77
2018-11-23T02:57:49.529Z,111.97
2018-11-23T03:00:20.644Z,106.33
2018-11-23T03:02:50.246Z,108.77
2018-11-23T03:05:21.140Z,135.50
2018-11-23T03:07:50.723Z,115.87
2018-11-23T03:10:20.315Z,112.57
2018-11-23T03:12:49.478Z,120.83
2018-11-23T03:15:20.010Z,111.37
2018-11-23T03:20:47.169Z,117.07
2018-11-23T03:23:16.636Z,107.03
2018-11-23T03:25:45.855Z,122.63
2018-11-23T03:28:18.063Z,118.53
2018-11-23T03:30:56.827Z,110.27
2018-11-23T03:33:26.336Z,120.70
2018-11-23T03:35:55.796Z,124.30
2018-11-23T03:38:24.376Z,114.10
2018-11-23T03:40:53.834Z,114.40
2018-11-23T03:43:26.640Z,112.73
2018-11-23T03:45:56.141Z,127.60
2018-11-23T03:48:24.667Z,107.60
2018-11-23T03:50:53.183Z,124.83
2018-11-23T03:53:46.230Z,115.33
2018-11-23T03:56:15.174Z,127.73
2018-11-23T03:58:43.726Z,95.90
2018-11-23T04:01:12.290Z,106.57
2018-11-23T04:03:40.861Z,113.17
2018-11-23T04:06:09.411Z,120.00
2018-11-23T04:08:37.967Z,107.07
2018-11-23T04:11:06.645Z,118.10
2018-11-23T04:13:35.180Z,111.03
2018-11-23T04:16:03.737Z,109.43
2018-11-23T04:18:32.288Z,104.10
2018-11-23T04:21:02.713Z,99.00
2018-11-23T04:23:32.643Z,103.27
2018-11-23T04:26:01.279Z,103.50
2018-11-23T04:28:29.932Z,106.77
2018-11-23T04:30:58.507Z,106.50
2018-11-23T04:33:27.655Z,134.97
2018-11-23T04:35:56.738Z,134.33
2018-11-23T04:38:25.275Z,128.73
2018-11-23T04:40:53.807Z,132.70
2018-11-23T04:43:22.346Z,116.77
2018-11-23T04:45:51.937Z,128.47
2018-11-23T04:48:20.522Z,119.27
2018-11-23T04:50:49.016Z,114.07
2018-11-23T04:53:17.889Z,107.57
2018-11-23T04:55:46.966Z,97.97
2018-11-23T04:58:16.437Z,119.00
2018-11-23T05:00:45.005Z,111.13
2018-11-23T05:03:13.591Z,107.63
2018-11-23T05:05:42.141Z,98.00
2018-11-23T05:08:10.708Z,129.23
2018-11-23T05:10:39.307Z,125.73
2018-11-23T05:13:07.846Z,115.23
2018-11-23T05:15:36.408Z,126.00
2018-11-23T05:18:05.570Z,131.40
2018-11-23T05:20:34.106Z,90.93
2018-11-23T05:23:02.633Z,100.60
2018-11-23T05:25:31.180Z,114.47
2018-11-23T05:27:59.704Z,112.33
2018-11-23T05:30:28.292Z,113.83
2018-11-23T05:32:56.891Z,105.77
2018-11-23T05:35:25.448Z,114.43
2018-11-23T05:37:54.922Z,105.53
2018-11-23T05:40:23.473Z,110.43
2018-11-23T05:42:52.240Z,116.80
2018-11-23T05:45:22.106Z,122.20
2018-11-23T05:47:50.866Z,110.40
2018-11-23T05:50:22.173Z,108.27
2018-11-23T05:52:50.774Z,105.13
2018-11-23T05:55:19.353Z,122.10
2018-11-23T05:57:48.152Z,114.07
2018-11-23T06:00:26.411Z,101.23
2018-11-23T06:02:55.966Z,94.17
2018-11-23T06:05:24.579Z,117.20
2018-11-23T06:07:53.219Z,125.73
2018-11-23T06:10:22.275Z,109.23
2018-11-23T06:12:51.908Z,109.60
2018-11-23T06:15:21.760Z,101.80
2018-11-23T06:17:50.601Z,102.23
2018-11-23T06:20:20.916Z,97.63
2018-11-23T06:22:51.029Z,100.27
2018-11-23T06:25:27.222Z,99.17
2018-11-23T06:27:55.830Z,115.53
2018-11-23T06:30:24.379Z,98.00
2018-11-23T06:33:04.248Z,110.57
2018-11-23T06:35:33.794Z,94.53
2018-11-23T06:38:03.326Z,103.13
2018-11-23T06:40:31.877Z,111.77
2018-11-23T06:43:00.467Z,120.60
2018-11-23T06:45:29.553Z,105.20
2018-11-23T06:47:58.092Z,106.73
2018-11-23T06:50:26.755Z,95.37
2018-11-23T06:52:55.349Z,98.57
2018-11-23T06:55:23.908Z,117.77
2018-11-23T06:57:52.589Z,122.37
2018-11-23T07:00:22.048Z,131.93
2018-11-23T07:02:50.618Z,125.33
2018-11-23T07:05:20.082Z,117.00
2018-11-23T07:07:48.634Z,133.73
2018-11-23T07:10:17.977Z,117.60
2018-11-23T07:12:47.612Z,125.10
2018-11-23T07:15:17.967Z,97.13
2018-11-23T07:17:47.584Z,118.77
2018-11-23T07:20:16.190Z,105.83
2018-11-23T07:22:45.151Z,112.63
2018-11-23T07:25:15.775Z,104.90
2018-11-23T07:27:47.683Z,105.90
2018-11-23T07:30:21.912Z,117.40
2018-11-23T07:32:50.459Z,120.77
2018-11-23T07:35:19.984Z,103.63
2018-11-23T07:37:49.457Z,106.73
2018-11-23T07:40:31.959Z,105.57
2018-11-23T07:43:01.379Z,110.33
2018-11-23T07:45:30.005Z,98.40
2018-11-23T07:47:59.610Z,120.40
2018-11-23T07:50:28.230Z,111.97
2018-11-23T07:52:57.795Z,108.27
2018-11-23T07:55:26.557Z,101.27
2018-11-23T07:57:55.184Z,102.30
2018-11-23T08:00:25.629Z,106.40
2018-11-23T08:02:54.205Z,87.87
2018-11-23T08:05:23.087Z,82.83
2018-11-23T08:07:51.651Z,109.73
2018-11-23T08:10:19.446Z,98.60
2018-11-23T08:12:49.846Z,100.87
2018-11-23T08:15:27.631Z,96.93
2018-11-23T08:17:56.515Z,94.03
2018-11-23T08:20:26.376Z,85.97
2018-11-23T08:22:55.272Z,93.30
2018-11-23T08:25:24.875Z,98.20
2018-11-23T08:27:54.775Z,105.60
2018-11-23T08:30:24.569Z,98.27
2018-11-23T08:32:53.453Z,112.57
2018-11-23T08:35:22.070Z,116.70
2018-11-23T08:37:50.661Z,101.70
2018-11-23T08:40:23.063Z,106.17
2018-11-23T08:42:52.547Z,104.93
2018-11-23T08:45:22.582Z,98.80
2018-11-23T08:47:51.168Z,85.70
2018-11-23T08:50:23.920Z,93.83
2018-11-23T08:52:53.470Z,81.93
2018-11-23T08:55:23.063Z,92.90
2018-11-23T08:57:53.150Z,84.27
2018-11-23T09:00:23.606Z,80.10
2018-11-23T09:02:53.620Z,75.97
2018-11-23T09:05:22.187Z,69.60
2018-11-23T09:07:52.003Z,78.07
2018-11-23T09:10:25.409Z,81.90
2018-11-23T09:12:56.583Z,71.30
2018-11-23T09:15:25.364Z,84.70
2018-11-23T09:17:53.987Z,80.57
2018-11-23T09:20:22.608Z,87.37
2018-11-23T09:22:51.190Z,81.30
2018-11-23T09:25:21.141Z,70.57
2018-11-23T09:27:49.712Z,74.30
2018-11-23T09:30:21.464Z,85.53
2018-11-23T09:32:50.977Z,76.40
2018-11-23T09:35:19.715Z,104.97
2018-11-23T09:37:48.825Z,79.97
2018-11-23T09:40:20.618Z,75.87
2018-11-23T09:42:49.605Z,81.47
2018-11-23T09:45:21.267Z,77.50
2018-11-23T09:47:51.250Z,81.93
2018-11-23T09:50:21.198Z,84.37
2018-11-23T09:52:51.978Z,84.33
2018-11-23T09:55:24.046Z,70.50
2018-11-23T09:57:52.017Z,92.17
2018-11-23T10:00:22.262Z,95.37
2018-11-23T10:02:52.899Z,80.17
2018-11-23T10:05:22.006Z,93.30
2018-11-23T10:07:52.028Z,80.87
2018-11-23T10:10:21.392Z,78.50
2018-11-23T10:12:51.002Z,93.60
2018-11-23T10:15:21.180Z,93.33
2018-11-23T10:17:50.690Z,86.50
2018-11-23T10:20:21.986Z,95.20
2018-11-23T10:22:51.629Z,89.43
2018-11-23T10:25:23.334Z,92.37
2018-11-23T10:27:51.942Z,90.77
2018-11-23T10:30:22.102Z,98.47
2018-11-23T10:32:51.867Z,90.70
2018-11-23T10:35:20.466Z,106.00
2018-11-23T10:37:50.353Z,77.77
2018-11-23T10:40:21.221Z,99.87
2018-11-23T10:42:49.935Z,97.87
2018-11-23T10:45:20.729Z,93.73
2018-11-23T10:47:49.845Z,88.33
2018-11-23T10:50:19.834Z,98.63
2018-11-23T10:52:48.681Z,100.70
2018-11-23T10:55:19.949Z,97.23
2018-11-23T10:58:11.903Z,111.13
2018-11-23T11:00:46.573Z,110.07
2018-11-23T11:06:26.325Z,109.37
2018-11-23T11:08:55.177Z,102.67
2018-11-23T11:11:24.705Z,108.67
2018-11-23T11:13:53.710Z,123.30
2018-11-23T11:16:22.699Z,105.50
2018-11-23T11:18:51.470Z,112.80
2018-11-23T11:21:20.152Z,113.47
2018-11-23T11:23:48.730Z,123.87
2018-11-23T11:26:18.639Z,110.37
2018-11-23T11:28:48.252Z,112.57
2018-11-23T11:31:17.706Z,123.63
2018-11-23T11:33:47.208Z,124.60
2018-11-23T11:36:16.933Z,118.23
2018-11-23T11:38:46.286Z,112.40
2018-11-23T11:41:14.529Z,104.60
2018-11-23T11:43:43.440Z,125.07
2018-11-23T11:46:13.036Z,131.57
2018-11-23T11:48:41.614Z,112.13
2018-11-23T11:51:11.053Z,122.50
2018-11-23T11:53:39.912Z,131.47
2018-11-23T11:56:08.684Z,141.67
2018-11-23T11:58:37.773Z,127.93
2018-11-23T12:01:06.541Z,112.67
2018-11-23T12:03:35.109Z,130.47
2018-11-23T12:06:03.723Z,127.77
2018-11-23T12:08:32.340Z,123.13
2018-11-23T12:11:00.916Z,112.97
2018-11-23T12:13:29.504Z,119.97
2018-11-23T12:15:59.124Z,127.87
2018-11-23T12:18:27.692Z,133.70
2018-11-23T12:20:56.415Z,130.20
2018-11-23T12:23:25.328Z,128.33
2018-11-23T12:25:53.906Z,127.63
2018-11-23T12:28:23.355Z,118.23
2018-11-23T12:30:51.961Z,127.27
2018-11-23T12:33:21.692Z,141.43
2018-11-23T12:35:51.091Z,110.13
2018-11-23T12:38:19.690Z,139.93
2018-11-23T12:40:48.232Z,113.10
2018-11-23T12:43:17.467Z,117.70
2018-11-23T12:45:46.663Z,121.00
2018-11-23T12:48:15.873Z,121.87
2018-11-23T12:50:44.465Z,132.47
2018-11-23T12:53:13.045Z,132.27
2018-11-23T12:55:42.738Z,125.10
2018-11-23T12:58:12.330Z,116.67
2018-11-23T13:00:40.918Z,128.47
2018-11-23T13:03:09.474Z,127.03
2018-11-23T13:05:38.365Z,110.27
2018-11-23T13:08:07.507Z,125.83
2018-11-23T13:10:36.095Z,116.17
2018-11-23T13:13:05.695Z,137.47
2018-11-23T13:15:34.396Z,119.87
2018-11-23T13:18:03.163Z,130.77
2018-11-23T13:20:31.761Z,129.83
2018-11-23T13:23:00.483Z,110.13
2018-11-23T13:25:31.555Z,116.47
2018-11-23T13:28:00.242Z,105.13
2018-11-23T13:30:32.225Z,136.10
2018-11-23T13:33:01.668Z,127.65
2018-11-23T13:35:31.615Z,122.43
2018-11-23T13:38:01.213Z,123.10
2018-11-23T13:40:30.249Z,110.90
2018-11-23T13:42:59.709Z,133.53
2018-11-23T13:45:29.863Z,115.23
2018-11-23T13:47:59.341Z,124.50
2018-11-23T13:50:28.297Z,101.77
2018-11-23T13:52:58.476Z,121.80
2018-11-23T13:55:28.063Z,135.60
2018-11-23T13:57:56.623Z,123.03
2018-11-23T14:00:27.605Z,126.83
2018-11-23T14:02:56.999Z,126.03
2018-11-23T14:05:27.101Z,138.83
2018-11-23T14:07:58.110Z,129.60
2018-11-23T14:10:27.578Z,132.20
2018-11-23T14:12:56.177Z,136.43
2018-11-23T14:15:26.126Z,118.50
2018-11-23T14:17:56.536Z,163.03
2018-11-23T14:20:26.019Z,130.80
2018-11-23T14:22:55.593Z,124.10
2018-11-23T14:25:25.717Z,139.10
2018-11-23T14:27:54.943Z,121.50
2018-11-23T14:30:25.405Z,123.03
2018-11-23T14:32:54.697Z,149.80
2018-11-23T14:35:24.944Z,120.37
2018-11-23T14:37:55.342Z,143.50
2018-11-23T14:40:23.883Z,120.37
2018-11-23T14:42:52.842Z,123.20
2018-11-23T14:45:31.299Z,124.47
2018-11-23T14:48:02.417Z,129.83
2018-11-23T14:50:33.102Z,144.13
2018-11-23T14:53:02.149Z,133.27
2018-11-23T14:55:31.155Z,128.90
2018-11-23T14:58:00.036Z,118.13
2018-11-23T15:00:36.250Z,124.30
2018-11-23T15:03:06.907Z,129.93
2018-11-23T15:05:35.916Z,115.10
2018-11-23T15:08:05.653Z,118.30
2018-11-23T15:10:35.279Z,123.23
2018-11-23T15:13:04.800Z,128.43
2018-11-23T15:15:34.929Z,126.27
2018-11-23T15:18:03.611Z,128.40
2018-11-23T15:20:36.674Z,126.20
2018-11-23T15:23:16.188Z,132.03
2018-11-23T15:25:45.205Z,123.20
2018-11-23T15:28:14.317Z,121.57
2018-11-23T15:30:43.770Z,123.07
2018-11-23T15:33:14.047Z,132.23
2018-11-23T15:35:43.555Z,123.93
2018-11-23T15:38:13.941Z,131.90
2018-11-23T15:40:42.568Z,112.97
2018-11-23T15:43:12.771Z,121.00
2018-11-23T15:45:41.418Z,126.90
2018-11-23T15:48:10.638Z,117.63
2018-11-23T15:50:40.322Z,115.77
2018-11-23T15:53:10.344Z,131.83
2018-11-23T15:55:39.555Z,109.60
2018-11-23T15:58:10.534Z,113.93
2018-11-23T16:00:41.308Z,122.53
2018-11-23T16:03:11.173Z,110.87
2018-11-23T16:05:40.065Z,105.70
2018-11-23T16:08:11.950Z,113.77
2018-11-23T16:10:40.661Z,131.70
2018-11-23T16:13:11.266Z,138.40
2018-11-23T16:15:39.244Z,130.57
2018-11-23T16:18:08.316Z,127.13
2018-11-23T16:20:39.185Z,123.47
2018-11-23T16:23:09.442Z,123.30
2018-11-23T16:25:38.197Z,128.60
2018-11-23T16:28:08.002Z,129.47
2018-11-23T16:30:39.069Z,139.07
2018-11-23T16:33:10.152Z,116.83
2018-11-23T16:35:39.692Z,121.30
2018-11-23T16:38:11.612Z,112.20
2018-11-23T16:40:42.814Z,132.03
2018-11-23T16:43:12.548Z,135.10
2018-11-23T16:45:42.757Z,127.60
2018-11-23T16:48:12.507Z,119.17
2018-11-23T16:50:41.199Z,137.73
2018-11-23T16:53:09.983Z,122.47
2018-11-23T16:55:38.604Z,126.27
2018-11-23T16:58:08.566Z,119.37
2018-11-23T17:00:38.855Z,127.90
2018-11-23T17:03:09.494Z,117.77
2018-11-23T17:05:48.849Z,114.77
2018-11-23T17:08:20.847Z,118.70
2018-11-23T17:10:51.375Z,149.70
2018-11-23T17:13:21.345Z,144.43
2018-11-23T17:15:50.457Z,129.37
2018-11-23T17:18:19.167Z,133.87
2018-11-23T17:20:48.649Z,129.17
2018-11-23T17:23:18.227Z,118.27
2018-11-23T17:25:47.852Z,155.90
2018-11-23T17:28:17.229Z,155.63
2018-11-23T17:30:46.939Z,161.83
2018-11-23T17:33:16.367Z,141.30
2018-11-23T17:35:46.248Z,126.57
2018-11-23T17:38:15.211Z,140.10
2018-11-23T17:40:44.651Z,114.30
2018-11-23T17:43:13.244Z,125.77
2018-11-23T17:45:41.803Z,132.87
2018-11-23T17:48:10.364Z,119.80
2018-11-23T17:50:39.719Z,132.13
2018-11-23T17:53:08.290Z,118.50
2018-11-23T17:55:36.800Z,135.10
2018-11-23T17:58:05.882Z,120.03
2018-11-23T18:00:39.237Z,141.10
2018-11-23T18:03:05.769Z,136.90
2018-11-23T18:05:35.832Z,136.03
2018-11-23T18:08:05.245Z,132.97
2018-11-23T18:10:34.664Z,136.70
2018-11-23T18:13:04.301Z,148.50
2018-11-23T18:15:33.980Z,137.03
2018-11-23T18:18:03.540Z,153.97
2018-11-23T18:20:33.321Z,162.37
2018-11-23T18:23:03.329Z,144.50
2018-11-23T18:25:33.410Z,140.63
2018-11-23T18:28:01.081Z,153.20
2018-11-23T18:30:31.828Z,152.93
2018-11-23T18:33:03.817Z,131.67
2018-11-23T18:35:33.040Z,126.67
2018-11-23T18:38:02.916Z,133.30
2018-11-23T18:40:37.428Z,147.70
2018-11-23T18:43:04.202Z,151.03
2018-11-23T18:45:33.823Z,143.37
2018-11-23T18:48:04.323Z,142.13
2018-11-23T18:50:34.088Z,125.50
2018-11-23T18:53:03.695Z,118.80
2018-11-23T18:55:32.280Z,122.43
2018-11-23T18:58:02.311Z,149.67
2018-11-23T19:00:31.706Z,155.40
2018-11-23T19:03:02.661Z,131.90
2018-11-23T19:05:33.871Z,117.40
2018-11-23T19:08:05.215Z,150.47
2018-11-23T19:10:38.657Z,131.53
2018-11-23T19:13:07.370Z,129.57
2018-11-23T19:15:36.096Z,131.97
2018-11-23T19:18:04.855Z,147.13
2018-11-23T19:20:35.112Z,133.20
2018-11-23T19:23:04.574Z,132.00
2018-11-23T19:25:34.599Z,132.33
2018-11-23T19:28:05.985Z,133.73
2018-11-23T19:30:35.951Z,127.70
2018-11-23T19:33:04.889Z,141.57
2018-11-23T19:35:34.438Z,129.80
2018-11-23T19:38:03.055Z,141.33
2018-11-23T19:40:31.850Z,132.63
2018-11-23T19:43:00.579Z,121.00
2018-11-23T19:45:29.303Z,125.83
2018-11-23T19:47:57.898Z,128.23
2018-11-23T19:50:26.804Z,147.87
2018-11-23T19:52:56.358Z,144.60
2018-11-23T19:55:25.116Z,116.90
2018-11-23T19:57:54.184Z,119.37
2018-11-23T20:00:24.791Z,117.27
2018-11-23T20:02:53.535Z,112.83
2018-11-23T20:05:22.542Z,127.13
2018-11-23T20:07:54.460Z,101.50
2018-11-23T20:10:23.882Z,122.90
2018-11-23T20:12:54.781Z,109.33
2018-11-23T20:15:23.472Z,141.63
2018-11-23T20:17:52.055Z,127.47
2018-11-23T20:20:20.686Z,120.37
2018-11-23T20:22:50.244Z,136.17
2018-11-23T20:25:19.857Z,127.50
2018-11-23T20:27:50.706Z,134.90
2018-11-23T20:30:19.823Z,130.03
2018-11-23T20:32:49.116Z,146.40
2018-11-23T20:35:19.020Z,127.80
2018-11-23T20:37:48.251Z,139.57
2018-11-23T20:40:18.852Z,135.33
2018-11-23T20:42:48.354Z,131.17
2018-11-23T20:45:17.821Z,118.53
2018-11-23T20:47:47.306Z,127.13
2018-11-23T20:50:18.671Z,129.97
2018-11-23T20:52:51.597Z,132.17
2018-11-23T20:55:22.186Z,116.07
2018-11-23T20:57:50.889Z,117.17
2018-11-23T21:00:21.605Z,124.00
2018-11-23T21:02:51.235Z,109.13
2018-11-23T21:05:20.994Z,124.17
2018-11-23T21:07:49.642Z,123.07
2018-11-23T21:10:21.531Z,124.67
2018-11-23T21:12:51.682Z,141.40
2018-11-23T21:15:23.419Z,106.67
2018-11-23T21:17:52.055Z,119.57
2018-11-23T21:20:20.705Z,117.50
2018-11-23T21:22:49.532Z,124.20
2018-11-23T21:25:18.408Z,107.23
2018-11-23T21:27:47.607Z,114.60
2018-11-23T21:30:19.242Z,125.30
2018-11-23T21:32:48.304Z,139.87
2018-11-23T21:35:17.350Z,130.73
2018-11-23T21:37:46.161Z,134.30
2018-11-23T21:40:16.361Z,132.67
2018-11-23T21:42:45.317Z,136.10
2018-11-23T21:45:18.537Z,139.77
2018-11-23T21:47:48.028Z,147.43
2018-11-23T21:50:25.512Z,143.87
2018-11-23T21:52:52.909Z,187.20
2018-11-23T21:55:25.497Z,162.87
2018-11-23T21:57:55.331Z,206.97
2018-11-23T22:00:24.629Z,184.23
2018-11-23T22:02:54.072Z,145.03
2018-11-23T22:05:24.172Z,145.20
2018-11-23T22:07:52.826Z,158.23
2018-11-23T22:10:22.293Z,196.67
2018-11-23T22:12:51.931Z,246.33
2018-11-23T22:15:23.615Z,124.23
2018-11-23T22:17:54.170Z,151.13
2018-11-23T22:20:23.522Z,196.00
2018-11-23T22:22:52.228Z,265.67
2018-11-23T22:25:22.588Z,188.83
2018-11-23T22:27:51.253Z,162.73
2018-11-23T22:30:25.155Z,157.60
2018-11-23T22:32:53.730Z,316.50
2018-11-23T22:35:22.305Z,215.00
2018-11-23T22:37:50.918Z,169.43
2018-11-23T22:40:20.420Z,172.10
2018-11-23T22:42:50.200Z,183.23
2018-11-23T22:45:19.586Z,128.23
2018-11-23T22:47:48.296Z,164.20
2018-11-23T22:50:19.191Z,191.07
2018-11-23T22:52:48.504Z,261.83
2018-11-23T22:55:18.148Z,328.27
2018-11-23T22:57:48.490Z,304.97
2018-11-23T23:01:29.819Z,140.67
2018-11-23T23:03:59.284Z,191.07
2018-11-23T23:06:27.860Z,168.87
2018-11-23T23:08:57.253Z,236.67
2018-11-23T23:11:26.000Z,207.67
2018-11-23T23:13:55.466Z,170.00
2018-11-23T23:16:24.918Z,131.40
2018-11-23T23:18:53.496Z,147.67
2018-11-23T23:21:22.067Z,200.57
2018-11-23T23:23:51.540Z,143.90
2018-11-23T23:26:20.082Z,95.20
2018-11-23T23:28:49.559Z,110.37
2018-11-23T23:31:19.334Z,170.67
2018-11-23T23:33:48.753Z,174.47
2018-11-23T23:36:18.465Z,116.20
2018-11-23T23:38:49.153Z,184.13
2018-11-23T23:41:18.558Z,228.30
2018-11-23T23:43:49.078Z,91.70
2018-11-23T23:46:18.686Z,148.63
2018-11-23T23:48:49.122Z,130.20
2018-11-23T23:51:18.613Z,150.07
2018-11-23T23:53:47.896Z,86.33
2018-11-23T23:56:18.160Z,169.43
2018-11-23T23:58:47.851Z,145.20
